Wetterdaten: aktuell Sonntag, 25.06.2017 04:31
Datum Zeit Temp. A. Feuchte A. Luftdruck Regen Wind Richtung Richtung Taupunkt Windchill Windben
25.06.2017 04:31 17,3 C 89 % 1009,4 hPa 0,0 l/m 6,2 km/h (2 Bft) N-NO 25 15,5 C 17,3 C 20,9 km/h (4 Bft)
25.06.2017 04:15 17,3 C 89 % 1009,5 hPa 0,0 l/m 8,2 km/h (2 Bft) N-NO 33 15,5 C 16,4 C 22,5 km/h (4 Bft)
25.06.2017 04:00 17,3 C 89 % 1009,7 hPa 0,0 l/m 8,7 km/h (2 Bft) NO 56 15,5 C 16,2 C 20,9 km/h (4 Bft)
25.06.2017 03:45 17,4 C 89 % 1009,9 hPa 0,0 l/m 9,1 km/h (2 Bft) N-NO 23 15,6 C 16,1 C 24,1 km/h (4 Bft)
25.06.2017 03:30 17,4 C 89 % 1010,0 hPa 0,0 l/m 6,2 km/h (2 Bft) NO 50 15,6 C 17,4 C 22,5 km/h (4 Bft)
25.06.2017 03:15 17,4 C 89 % 1010,0 hPa 0,0 l/m 8,1 km/h (2 Bft) N-NO 28 15,6 C 16,6 C 20,9 km/h (4 Bft)
25.06.2017 03:00 17,4 C 89 % 1010,2 hPa 0,0 l/m 8,8 km/h (2 Bft) N-NO 31 15,6 C 16,3 C 22,5 km/h (4 Bft)
25.06.2017 02:45 17,4 C 89 % 1010,3 hPa 0,0 l/m 7,2 km/h (2 Bft) NO 43 15,6 C 17,0 C 22,5 km/h (4 Bft)
25.06.2017 02:30 17,4 C 90 % 1010,5 hPa 0,0 l/m 5,9 km/h (2 Bft) N 358 15,7 C 17,4 C 16,1 km/h (3 Bft)
25.06.2017 02:15 17,4 C 90 % 1010,5 hPa 0,0 l/m 5,7 km/h (1 Bft) NO 49 15,7 C 17,4 C 16,1 km/h (3 Bft)
25.06.2017 02:00 17,4 C 90 % 1010,7 hPa 0,0 l/m 7,2 km/h (2 Bft) NO 50 15,7 C 17,0 C 19,3 km/h (3 Bft)
25.06.2017 01:45 17,4 C 90 % 1010,9 hPa 0,0 l/m 6,8 km/h (2 Bft) NO 36 15,7 C 17,2 C 19,3 km/h (3 Bft)
25.06.2017 01:30 17,4 C 90 % 1011,0 hPa 0,0 l/m 6,0 km/h (2 Bft) NO 43 15,7 C 17,4 C 16,1 km/h (3 Bft)
25.06.2017 01:15 17,4 C 89 % 1011,1 hPa 0,0 l/m 6,1 km/h (2 Bft) NO 44 15,6 C 17,4 C 22,5 km/h (4 Bft)
25.06.2017 01:00 17,4 C 90 % 1011,3 hPa 0,0 l/m 6,8 km/h (2 Bft) N-NO 24 15,7 C 17,2 C 20,9 km/h (4 Bft)
25.06.2017 00:46 17,4 C 90 % 1011,5 hPa 0,0 l/m 6,4 km/h (2 Bft) NO 44 15,7 C 17,4 C 22,5 km/h (4 Bft)
25.06.2017 00:30 17,3 C 90 % 1011,6 hPa 0,0 l/m 5,4 km/h (1 Bft) NO 38 15,6 C 17,3 C 24,1 km/h (4 Bft)
25.06.2017 00:15 17,2 C 90 % 1011,6 hPa 0,0 l/m 7,3 km/h (2 Bft) NO 45 15,5 C 16,8 C 20,9 km/h (4 Bft)
25.06.2017 00:00 17,2 C 91 % 1011,7 hPa 0,0 l/m 4,1 km/h (1 Bft) NO 38 15,7 C 17,2 C 17,7 km/h (3 Bft)
24.06.2017 23:45 17,2 C 91 % 1011,8 hPa 0,0 l/m 6,8 km/h (2 Bft) O-NO 59 15,7 C 17,0 C 24,1 km/h (4 Bft)
24.06.2017 23:30 17,2 C 90 % 1011,9 hPa 0,0 l/m 6,5 km/h (2 Bft) O-NO 65 15,5 C 17,2 C 19,3 km/h (3 Bft)
24.06.2017 23:16 17,2 C 90 % 1011,9 hPa 0,0 l/m 8,8 km/h (2 Bft) NO 35 15,5 C 16,0 C 24,1 km/h (4 Bft)
24.06.2017 23:00 17,2 C 90 % 1012,0 hPa 0,0 l/m 8,9 km/h (2 Bft) N-NO 25 15,5 C 16,0 C 24,1 km/h (4 Bft)
24.06.2017 22:45 17,2 C 91 % 1012,0 hPa 0,0 l/m 8,1 km/h (2 Bft) NO 40 15,7 C 16,4 C 22,5 km/h (4 Bft)
24.06.2017 22:30 17,1 C 91 % 1012,1 hPa 0,0 l/m 5,7 km/h (1 Bft) NO 48 15,6 C 17,1 C 16,1 km/h (3 Bft)
24.06.2017 22:15 17,0 C 91 % 1012,2 hPa 0,0 l/m 9,0 km/h (2 Bft) N-NO 26 15,5 C 15,7 C 22,5 km/h (4 Bft)
24.06.2017 22:00 16,9 C 91 % 1012,2 hPa 0,0 l/m 6,7 km/h (2 Bft) NO 47 15,4 C 16,8 C 19,3 km/h (3 Bft)
24.06.2017 21:45 17,0 C 91 % 1012,2 hPa 0,0 l/m 6,0 km/h (2 Bft) NO 36 15,5 C 17,0 C 19,3 km/h (3 Bft)
24.06.2017 21:30 17,2 C 90 % 1012,3 hPa 0,0 l/m 5,3 km/h (1 Bft) NO 51 15,5 C 17,2 C 16,1 km/h (3 Bft)
24.06.2017 21:15 17,3 C 89 % 1012,3 hPa 0,0 l/m 2,6 km/h (1 Bft) O-NO 65 15,5 C 17,3 C 12,9 km/h (3 Bft)
24.06.2017 21:00 17,4 C 88 % 1012,5 hPa 0,0 l/m 6,2 km/h (2 Bft) NO 52 15,4 C 17,4 C 20,9 km/h (4 Bft)
24.06.2017 20:45 17,6 C 88 % 1012,5 hPa 0,0 l/m 4,3 km/h (1 Bft) N-NO 25 15,6 C 17,6 C 14,5 km/h (3 Bft)
24.06.2017 20:32 17,8 C 87 % 1012,6 hPa 0,0 l/m 5,7 km/h (1 Bft) O-NO 66 15,6 C 17,8 C 22,5 km/h (4 Bft)
24.06.2017 20:15 18,2 C 85 % 1012,7 hPa 0,0 l/m 2,6 km/h (1 Bft) NO 50 15,6 C 18,2 C 11,3 km/h (2 Bft)
24.06.2017 20:01 18,4 C 82 % 1012,8 hPa 0,0 l/m 7,2 km/h (2 Bft) O-NO 59 15,3 C 18,0 C 22,5 km/h (4 Bft)
24.06.2017 19:45 18,7 C 80 % 1012,9 hPa 0,0 l/m 8,9 km/h (2 Bft) O-NO 57 15,2 C 17,6 C 27,4 km/h (4 Bft)
24.06.2017 19:30 18,7 C 81 % 1012,9 hPa 0,0 l/m 4,1 km/h (1 Bft) NO 43 15,4 C 18,7 C 12,9 km/h (3 Bft)
24.06.2017 19:15 18,4 C 83 % 1012,9 hPa 0,0 l/m 3,8 km/h (1 Bft) NO 46 15,5 C 18,4 C 14,5 km/h (3 Bft)
24.06.2017 19:00 18,3 C 84 % 1012,9 hPa 0,0 l/m 5,1 km/h (1 Bft) O-NO 74 15,5 C 18,3 C 20,9 km/h (4 Bft)
24.06.2017 18:46 18,6 C 81 % 1012,9 hPa 0,0 l/m 3,9 km/h (1 Bft) O-NO 71 15,3 C 18,6 C 16,1 km/h (3 Bft)
24.06.2017 18:30 18,8 C 79 % 1013,0 hPa 0,0 l/m 7,9 km/h (2 Bft) O-NO 77 15,1 C 18,1 C 25,7 km/h (4 Bft)
24.06.2017 18:15 18,8 C 79 % 1013,0 hPa 0,0 l/m 4,4 km/h (1 Bft) NO 52 15,1 C 18,8 C 14,5 km/h (3 Bft)
24.06.2017 18:00 18,7 C 80 % 1013,1 hPa 0,0 l/m 4,9 km/h (1 Bft) O-NO 70 15,2 C 18,7 C 14,5 km/h (3 Bft)
24.06.2017 17:47 18,7 C 80 % 1013,2 hPa 0,0 l/m 4,5 km/h (1 Bft) NO 43 15,2 C 18,7 C 16,1 km/h (3 Bft)
24.06.2017 17:30 18,7 C 80 % 1013,2 hPa 0,0 l/m 5,5 km/h (1 Bft) NO 37 15,2 C 18,7 C 24,1 km/h (4 Bft)
24.06.2017 17:16 18,6 C 80 % 1013,3 hPa 0,0 l/m 6,0 km/h (2 Bft) O-NO 74 15,1 C 18,6 C 22,5 km/h (4 Bft)
24.06.2017 17:00 18,4 C 81 % 1013,3 hPa 0,0 l/m 6,1 km/h (2 Bft) O-NO 68 15,1 C 18,4 C 19,3 km/h (3 Bft)
24.06.2017 16:45 18,4 C 81 % 1013,4 hPa 0,0 l/m 5,2 km/h (1 Bft) O 88 15,1 C 18,4 C 25,7 km/h (4 Bft)
24.06.2017 16:30 18,3 C 81 % 1013,5 hPa 0,0 l/m 7,6 km/h (2 Bft) N 6 15,0 C 17,7 C 24,1 km/h (4 Bft)
24.06.2017 16:15 18,2 C 82 % 1013,5 hPa 0,0 l/m 5,2 km/h (1 Bft) O-NO 74 15,1 C 18,2 C 19,3 km/h (3 Bft)
24.06.2017 16:00 17,9 C 84 % 1013,6 hPa 0,0 l/m 5,9 km/h (2 Bft) O-NO 69 15,2 C 17,9 C 20,9 km/h (4 Bft)
24.06.2017 15:45 17,7 C 84 % 1013,6 hPa 0,0 l/m 7,0 km/h (2 Bft) NO 55 15,0 C 17,4 C 25,7 km/h (4 Bft)
24.06.2017 15:30 17,9 C 83 % 1013,7 hPa 0,0 l/m 8,6 km/h (2 Bft) O-NO 73 15,0 C 16,9 C 30,6 km/h (5 Bft)
24.06.2017 15:16 18,2 C 83 % 1013,6 hPa 0,0 l/m 8,3 km/h (2 Bft) N-NO 32 15,3 C 17,3 C 22,5 km/h (4 Bft)
24.06.2017 15:00 18,1 C 82 % 1013,5 hPa 0,0 l/m 7,3 km/h (2 Bft) NO 44 15,0 C 17,7 C 22,5 km/h (4 Bft)
24.06.2017 14:45 18,2 C 81 % 1013,5 hPa 0,0 l/m 6,7 km/h (2 Bft) NO 56 14,9 C 18,1 C 27,4 km/h (4 Bft)
24.06.2017 14:30 18,1 C 81 % 1013,5 hPa 0,0 l/m 8,1 km/h (2 Bft) NO 45 14,8 C 17,3 C 22,5 km/h (4 Bft)
24.06.2017 14:15 18,1 C 81 % 1013,4 hPa 0,0 l/m 6,0 km/h (2 Bft) N-NO 31 14,8 C 18,1 C 27,4 km/h (4 Bft)
24.06.2017 14:00 18,1 C 80 % 1013,4 hPa 0,0 l/m 7,7 km/h (2 Bft) O 85 14,6 C 17,5 C 25,7 km/h (4 Bft)
24.06.2017 13:47 18,0 C 80 % 1013,3 hPa 0,0 l/m 8,9 km/h (2 Bft) N-NO 19 14,5 C 16,9 C 30,6 km/h (5 Bft)
24.06.2017 13:30 18,1 C 80 % 1013,3 hPa 0,0 l/m 9,4 km/h (2 Bft) O-NO 66 14,6 C 16,8 C 29,0 km/h (5 Bft)
24.06.2017 13:16 18,1 C 79 % 1013,2 hPa 0,0 l/m 10,6 km/h (2 Bft) NO 41 14,4 C 16,3 C 30,6 km/h (5 Bft)
24.06.2017 13:00 18,1 C 80 % 1013,1 hPa 0,0 l/m 9,6 km/h (2 Bft) O 79 14,6 C 16,7 C 32,2 km/h (5 Bft)
24.06.2017 12:45 17,8 C 80 % 1013,0 hPa 0,0 l/m 10,5 km/h (2 Bft) N-NO 29 14,3 C 16,0 C 30,6 km/h (5 Bft)
24.06.2017 12:30 17,4 C 84 % 1013,1 hPa 0,0 l/m 4,3 km/h (1 Bft) N-NO 33 14,7 C 17,4 C 16,1 km/h (3 Bft)
24.06.2017 12:15 17,0 C 86 % 1013,2 hPa 0,0 l/m 5,4 km/h (1 Bft) N-NO 28 14,6 C 17,0 C 19,3 km/h (3 Bft)
24.06.2017 12:00 17,1 C 86 % 1013,3 hPa 0,0 l/m 6,3 km/h (2 Bft) N-NO 20 14,7 C 17,1 C 19,3 km/h (3 Bft)
24.06.2017 11:45 17,5 C 83 % 1013,2 hPa 0,0 l/m 7,0 km/h (2 Bft) NO 34 14,6 C 17,2 C 25,7 km/h (4 Bft)
24.06.2017 11:30 17,7 C 80 % 1013,3 hPa 0,0 l/m 6,6 km/h (2 Bft) N-NO 27 14,2 C 17,6 C 20,9 km/h (4 Bft)
24.06.2017 11:16 17,8 C 78 % 1013,1 hPa 0,0 l/m 10,1 km/h (2 Bft) O-NO 57 13,9 C 16,2 C 32,2 km/h (5 Bft)
24.06.2017 11:00 18,1 C 76 % 1013,0 hPa 0,0 l/m 9,1 km/h (2 Bft) N 359 13,8 C 16,9 C 24,1 km/h (4 Bft)
24.06.2017 10:46 18,4 C 75 % 1013,0 hPa 0,0 l/m 6,6 km/h (2 Bft) NO 56 13,9 C 18,3 C 27,4 km/h (4 Bft)
24.06.2017 10:31 18,3 C 76 % 1012,9 hPa 0,0 l/m 10,8 km/h (2 Bft) O-NO 71 14,0 C 16,5 C 25,7 km/h (4 Bft)
24.06.2017 10:15 17,6 C 77 % 1012,9 hPa 0,0 l/m 8,0 km/h (2 Bft) N-NO 14 13,5 C 16,8 C 25,7 km/h (4 Bft)
24.06.2017 10:00 17,3 C 78 % 1013,1 hPa 0,0 l/m 9,1 km/h (2 Bft) NO 38 13,4 C 16,0 C 29,0 km/h (5 Bft)
24.06.2017 09:45 17,2 C 79 % 1013,2 hPa 0,0 l/m 7,4 km/h (2 Bft) N-NO 29 13,5 C 16,7 C 25,7 km/h (4 Bft)
24.06.2017 09:30 17,0 C 79 % 1013,1 hPa 0,0 l/m 6,5 km/h (2 Bft) O-NO 62 13,3 C 17,0 C 22,5 km/h (4 Bft)
24.06.2017 09:15 16,8 C 79 % 1013,1 hPa 0,0 l/m 10,0 km/h (2 Bft) N-NO 26 13,1 C 15,1 C 29,0 km/h (5 Bft)
24.06.2017 09:00 16,8 C 79 % 1013,1 hPa 0,0 l/m 11,8 km/h (2 Bft) NO 44 13,1 C 14,4 C 29,0 km/h (5 Bft)
24.06.2017 08:45 16,8 C 78 % 1013,0 hPa 0,0 l/m 8,9 km/h (2 Bft) O-NO 59 12,9 C 15,6 C 27,4 km/h (4 Bft)
24.06.2017 08:30 16,7 C 78 % 1012,9 hPa 0,0 l/m 8,0 km/h (2 Bft) N-NO 29 12,8 C 15,9 C 24,1 km/h (4 Bft)
24.06.2017 08:15 16,6 C 79 % 1012,7 hPa 0,0 l/m 9,6 km/h (2 Bft) NO 45 12,9 C 15,1 C 29,0 km/h (5 Bft)
24.06.2017 08:00 16,4 C 79 % 1012,8 hPa 0,0 l/m 10,0 km/h (2 Bft) NO 42 12,7 C 14,7 C 24,1 km/h (4 Bft)
24.06.2017 07:45 16,3 C 78 % 1012,8 hPa 0,0 l/m 9,1 km/h (2 Bft) O-NO 64 12,5 C 14,9 C 22,5 km/h (4 Bft)
24.06.2017 07:30 16,3 C 78 % 1012,8 hPa 0,0 l/m 9,0 km/h (2 Bft) O-NO 62 12,5 C 15,0 C 25,7 km/h (4 Bft)
24.06.2017 07:16 16,4 C 78 % 1013,0 hPa 0,0 l/m 7,6 km/h (2 Bft) N-NO 33 12,6 C 15,8 C 27,4 km/h (4 Bft)
24.06.2017 07:00 16,5 C 77 % 1013,0 hPa 0,0 l/m 9,0 km/h (2 Bft) O-NO 71 12,5 C 15,2 C 20,9 km/h (4 Bft)
24.06.2017 06:45 16,6 C 77 % 1013,0 hPa 0,0 l/m 9,7 km/h (2 Bft) N-NO 26 12,5 C 15,0 C 24,1 km/h (4 Bft)
24.06.2017 06:31 16,6 C 76 % 1013,0 hPa 0,0 l/m 7,9 km/h (2 Bft) N-NO 29 12,3 C 15,8 C 22,5 km/h (4 Bft)
24.06.2017 06:15 16,7 C 76 % 1013,1 hPa 0,0 l/m 6,3 km/h (2 Bft) O-NO 62 12,4 C 16,7 C 19,3 km/h (3 Bft)
24.06.2017 06:00 16,7 C 76 % 1013,1 hPa 0,0 l/m 8,1 km/h (2 Bft) NO 34 12,4 C 15,8 C 22,5 km/h (4 Bft)
24.06.2017 05:45 16,8 C 75 % 1013,1 hPa 0,0 l/m 7,2 km/h (2 Bft) NO 44 12,3 C 16,4 C 20,9 km/h (4 Bft)
24.06.2017 05:30 16,9 C 75 % 1013,2 hPa 0,0 l/m 5,5 km/h (1 Bft) NO 50 12,4 C 16,9 C 17,7 km/h (3 Bft)
24.06.2017 05:15 17,1 C 74 % 1013,3 hPa 0,0 l/m 6,6 km/h (2 Bft) NO 36 12,4 C 17,0 C 22,5 km/h (4 Bft)
24.06.2017 05:00 17,3 C 73 % 1013,4 hPa 0,0 l/m 8,8 km/h (2 Bft) NO 48 12,4 C 16,2 C 27,4 km/h (4 Bft)
_ Min-Zeit 07:30 05:00 04:31 - 20:15 - - 05:45 09:00 20:15
Minimum _ 16,3 C 73 % 1009,4 hPa - 2,6 km/h (1 Bft) - - 12,3 C 14,4 C 11,3 km/h (2 Bft)
_ Max-Zeit 18:30 21:45 15:30 05:00 09:00 - - 00:46 18:15 11:16
Maximum _ 18,9 C 91 % 1013,7 hPa 0,0 l/m 11,8 km/h
NO (2 Bft)
- - 15,7 C 18,8 C 32,2 km/h
N-NO (5 Bft)
Durchschnitt _ 17,5 C 82 % 1012,6 hPa #0,0 l/m 7,3 km/h (2 Bft) NO - 14,5 C 16,9 C 22,8 km/h (4 Bft)